DRZM weather

Maine-Soroa Airport
Maine-Soroa, Diffa Region, Niger

Public forecast

Using degrees Celsius for public forecast. Weather courtesy of forecast.io.

Current aviation weather report (METAR) for Maine-Soroa Airport

Report is more than 6 hours old.

Retrieved 2009/12/23 08:30 UTC (10 years ago):

DRZM 230830Z 08012KT 4500 DU BKN 300

Closest aviation forecast (TAF) to Maine-Soroa Airport

Closest forecast is Maiduguri International Airport, 101.7 nm (188.4 km) SE. Retrieved 2019/10/17 12:27 UTC (3 hours ago):

TAF DNMA 171100Z 1712/1818 26008KT 9999 TS SCT013 FEW019CB TEMPO 1715/1721 06015G35KT TSRA BKN010 FEW018CB BECMG 1721/1723 NSW FEW010